Time;durP1;ratioP1;P1;durP2;ratioP2;P2;SDS_P1;SDS_P2;PMS_P1;PMS_P2;Temp;Humidity;BMP_temperature;BMP_pressure;BME280_temperature;BME280_humidity;BME280_pressure;Samples;Min_cycle;Max_cycle;Signal;HPM_P1;HPM_P2
2023/07/15 00:01:18;;;;;;;0.00;0.00;;;;;;;;;;5094430;28;20130;-77
2023/07/15 00:03:44;;;;;;;0.00;0.00;;;;;;;;;;5095563;28;20055;-78
2023/07/15 00:06:10;;;;;;;0.00;0.00;;;;;;;;;;5094801;28;20047;-77
2023/07/15 00:08:36;;;;;;;0.00;0.00;;;;;;;;;;5077279;28;20043;-77
2023/07/15 00:11:02;;;;;;;0.00;0.00;;;;;;;;;;5095725;28;20036;-78
2023/07/15 00:13:28;;;;;;;0.00;0.00;;;;;;;;;;5095566;28;20071;-77
2023/07/15 00:15:56;;;;;;;0.00;0.00;;;;;;;;;;5095803;28;20051;-78
2023/07/15 00:18:22;;;;;;;0.00;0.00;;;;;;;;;;5094120;28;20478;-77
2023/07/15 00:20:49;;;;;;;0.00;0.00;;;;;;;;;;5077602;28;20039;-77
2023/07/15 00:23:19;;;;;;;0.00;0.00;;;;;;;;;;5095477;28;20456;-78
2023/07/15 00:25:46;;;;;;;0.00;0.00;;;;;;;;;;5094271;28;20075;-77
2023/07/15 00:28:12;;;;;;;0.00;0.00;;;;;;;;;;5095263;28;20510;-78
2023/07/15 00:30:38;;;;;;;0.00;0.00;;;;;;;;;;5095201;28;20119;-77
2023/07/15 00:33:08;;;;;;;0.00;0.00;;;;;;;;;;5093847;28;20471;-77
2023/07/15 00:35:34;;;;;;;0.00;0.00;;;;;;;;;;5095498;28;20040;-77
2023/07/15 00:38:00;;;;;;;0.00;0.00;;;;;;;;;;5077148;28;20040;-77
2023/07/15 00:40:26;;;;;;;0.00;0.00;;;;;;;;;;5095651;28;20098;-78
2023/07/15 00:43:11;;;;;;;0.00;0.00;;;;;;;;;;5094297;28;20111;-77
2023/07/15 00:45:37;;;;;;;0.00;0.00;;;;;;;;;;5095494;28;20052;-78
2023/07/15 00:48:03;;;;;;;0.00;0.00;;;;;;;;;;5092494;28;20056;-78
2023/07/15 00:50:30;;;;;;;0.00;0.00;;;;;;;;;;5093998;28;20119;-77
2023/07/15 00:52:56;;;;;;;0.00;0.00;;;;;;;;;;5093816;28;20044;-78
2023/07/15 00:55:22;;;;;;;0.05;0.00;;;;;;;;;;5076663;28;20047;-77
2023/07/15 00:57:48;;;;;;;0.00;0.00;;;;;;;;;;5093696;28;20078;-77
2023/07/15 01:00:15;;;;;;;0.00;0.00;;;;;;;;;;5093135;28;20051;-78
2023/07/15 01:02:42;;;;;;;0.00;0.00;;;;;;;;;;5094865;28;20051;-77
2023/07/15 01:05:08;;;;;;;0.00;0.00;;;;;;;;;;5093457;28;20385;-78
2023/07/15 01:07:34;;;;;;;0.00;0.00;;;;;;;;;;5094727;28;20055;-77
2023/07/15 01:10:00;;;;;;;0.00;0.00;;;;;;;;;;5092941;28;20340;-77
2023/07/15 01:12:26;;;;;;;0.00;0.00;;;;;;;;;;5094478;28;20040;-77
2023/07/15 01:14:52;;;;;;;0.00;0.00;;;;;;;;;;5094528;28;20036;-78
2023/07/15 01:17:19;;;;;;;0.00;0.00;;;;;;;;;;5094546;28;20079;-78
2023/07/15 01:19:45;;;;;;;0.00;0.00;;;;;;;;;;5094154;28;20044;-78
2023/07/15 01:22:11;;;;;;;0.00;0.00;;;;;;;;;;5093228;28;20097;-78
2023/07/15 01:24:39;;;;;;;0.00;0.00;;;;;;;;;;5075825;28;20131;-78
2023/07/15 01:27:07;;;;;;;0.00;0.00;;;;;;;;;;5092981;28;20048;-78
2023/07/15 01:29:33;;;;;;;0.00;0.00;;;;;;;;;;5094165;28;20040;-78
2023/07/15 01:32:00;;;;;;;0.00;0.00;;;;;;;;;;5092758;28;20498;-77
2023/07/15 01:34:26;;;;;;;0.00;0.00;;;;;;;;;;5093838;28;20071;-78
2023/07/15 01:36:52;;;;;;;0.00;0.00;;;;;;;;;;5094000;28;20040;-77
2023/07/15 01:39:18;;;;;;;0.00;0.00;;;;;;;;;;5093515;28;20039;-77
2023/07/15 01:41:44;;;;;;;0.00;0.00;;;;;;;;;;5092844;28;20392;-77
2023/07/15 01:44:10;;;;;;;0.00;0.00;;;;;;;;;;5092083;28;20452;-78
2023/07/15 01:46:39;;;;;;;0.00;0.00;;;;;;;;;;5093879;28;20040;-77
2023/07/15 01:49:07;;;;;;;0.00;0.00;;;;;;;;;;5093602;28;20040;-77
2023/07/15 01:51:33;;;;;;;0.00;0.00;;;;;;;;;;5093658;28;20036;-77
2023/07/15 01:53:59;;;;;;;0.00;0.00;;;;;;;;;;5093459;28;20119;-78
2023/07/15 01:56:25;;;;;;;0.00;0.00;;;;;;;;;;5093786;28;20076;-77
2023/07/15 01:58:51;;;;;;;0.00;0.00;;;;;;;;;;5093414;28;20059;-78
2023/07/15 02:01:18;;;;;;;0.00;0.00;;;;;;;;;;5092411;28;20036;-78
2023/07/15 02:03:45;;;;;;;0.00;0.00;;;;;;;;;;5090288;28;20051;-77
2023/07/15 02:06:11;;;;;;;0.00;0.00;;;;;;;;;;5093368;28;20044;-77
2023/07/15 02:08:37;;;;;;;0.00;0.00;;;;;;;;;;5093445;28;20042;-78
2023/07/15 02:11:03;;;;;;;0.00;0.00;;;;;;;;;;5093239;28;20123;-78
2023/07/15 02:13:29;;;;;;;0.00;0.00;;;;;;;;;;5093250;28;20441;-78
2023/07/15 02:15:55;;;;;;;0.00;0.00;;;;;;;;;;5091991;28;20048;-78
2023/07/15 02:18:22;;;;;;;0.00;0.00;;;;;;;;;;5091854;28;20483;-78
2023/07/15 02:20:49;;;;;;;0.00;0.00;;;;;;;;;;5092826;28;20039;-77
2023/07/15 02:23:16;;;;;;;0.10;0.08;;;;;;;;;;5091596;28;20390;-77
2023/07/15 02:25:42;;;;;;;0.00;0.00;;;;;;;;;;5091471;28;20055;-78
2023/07/15 02:28:08;;;;;;;0.00;0.00;;;;;;;;;;5091767;28;20040;-77
2023/07/15 02:30:35;;;;;;;0.00;0.00;;;;;;;;;;5074401;28;20533;-78
2023/07/15 02:33:01;;;;;;;0.00;0.00;;;;;;;;;;5091718;28;20044;-78
2023/07/15 02:35:30;;;;;;;0.00;0.00;;;;;;;;;;5091420;28;20044;-77
2023/07/15 02:37:56;;;;;;;0.00;0.00;;;;;;;;;;5092818;28;20042;-78
2023/07/15 02:40:22;;;;;;;0.00;0.00;;;;;;;;;;5092742;28;20044;-77
2023/07/15 02:42:49;;;;;;;0.00;0.00;;;;;;;;;;5091524;28;20048;-77
2023/07/15 02:45:16;;;;;;;0.00;0.00;;;;;;;;;;5091149;28;20056;-78
2023/07/15 02:47:42;;;;;;;0.00;0.00;;;;;;;;;;5092560;28;20047;-77
2023/07/15 02:50:08;;;;;;;0.00;0.00;;;;;;;;;;5091309;28;20077;-77
2023/07/15 02:52:36;;;;;;;0.00;0.00;;;;;;;;;;5092772;28;20332;-77
2023/07/15 02:55:03;;;;;;;0.00;0.00;;;;;;;;;;5092613;28;20039;-77
2023/07/15 02:57:28;;;;;;;0.00;0.00;;;;;;;;;;5091183;28;20127;-77
2023/07/15 02:59:55;;;;;;;0.00;0.00;;;;;;;;;;5090997;28;20144;-77
2023/07/15 03:02:22;;;;;;;0.00;0.00;;;;;;;;;;5091430;28;20116;-77
2023/07/15 03:04:48;;;;;;;0.00;0.00;;;;;;;;;;5092061;28;20495;-78
2023/07/15 03:07:16;;;;;;;0.00;0.00;;;;;;;;;;5091022;28;20071;-77
2023/07/15 03:09:42;;;;;;;0.00;0.00;;;;;;;;;;5090373;28;20479;-77
2023/07/15 03:12:11;;;;;;;0.00;0.00;;;;;;;;;;5092371;28;20328;-77
2023/07/15 03:14:38;;;;;;;0.00;0.00;;;;;;;;;;5092203;28;20115;-77
2023/07/15 03:17:04;;;;;;;0.00;0.00;;;;;;;;;;5092501;28;20159;-78
2023/07/15 03:19:31;;;;;;;0.00;0.00;;;;;;;;;;5090641;28;20050;-77
2023/07/15 03:21:59;;;;;;;0.00;0.00;;;;;;;;;;5090978;28;20040;-77
2023/07/15 03:24:26;;;;;;;0.00;0.00;;;;;;;;;;5074021;28;20048;-77
2023/07/15 03:26:53;;;;;;;0.00;0.00;;;;;;;;;;5092138;28;20072;-77
2023/07/15 03:29:19;;;;;;;0.00;0.00;;;;;;;;;;5092063;28;20485;-78
2023/07/15 03:31:45;;;;;;;0.00;0.00;;;;;;;;;;5092141;28;20394;-77
2023/07/15 03:34:11;;;;;;;0.00;0.00;;;;;;;;;;5091061;28;20044;-77
2023/07/15 03:36:37;;;;;;;0.00;0.00;;;;;;;;;;5092125;28;20043;-77
2023/07/15 03:39:03;;;;;;;0.00;0.00;;;;;;;;;;5091948;28;20111;-77
2023/07/15 03:41:29;;;;;;;0.00;0.00;;;;;;;;;;5091814;28;20483;-78
2023/07/15 03:43:55;;;;;;;0.00;0.00;;;;;;;;;;5091027;28;20051;-78
2023/07/15 03:46:21;;;;;;;0.00;0.00;;;;;;;;;;5091502;28;20056;-77
2023/07/15 03:48:47;;;;;;;0.00;0.00;;;;;;;;;;5092269;28;20040;-77
2023/07/15 03:51:13;;;;;;;0.00;0.00;;;;;;;;;;5091949;28;20146;-77
2023/07/15 03:53:39;;;;;;;0.00;0.00;;;;;;;;;;5090975;28;20044;-77
2023/07/15 03:56:05;;;;;;;0.00;0.00;;;;;;;;;;5091667;28;20044;-77
2023/07/15 03:58:31;;;;;;;0.00;0.00;;;;;;;;;;5090634;28;20036;-78
2023/07/15 04:00:57;;;;;;;0.00;0.00;;;;;;;;;;5090435;28;20066;-77
2023/07/15 04:03:23;;;;;;;0.00;0.00;;;;;;;;;;5091846;28;20094;-77
2023/07/15 04:05:49;;;;;;;0.00;0.00;;;;;;;;;;5090309;28;20483;-77
2023/07/15 04:08:15;;;;;;;0.00;0.00;;;;;;;;;;5090620;28;20116;-78
2023/07/15 04:10:41;;;;;;;0.00;0.00;;;;;;;;;;5090546;28;20072;-77
2023/07/15 04:13:07;;;;;;;0.00;0.00;;;;;;;;;;5092012;28;20043;-77
2023/07/15 04:15:33;;;;;;;0.00;0.00;;;;;;;;;;5073331;28;20032;-77
2023/07/15 04:17:59;;;;;;;0.00;0.00;;;;;;;;;;5090635;28;20091;-78
2023/07/15 04:20:26;;;;;;;0.00;0.00;;;;;;;;;;5090398;28;20052;-78
2023/07/15 04:22:52;;;;;;;0.00;0.00;;;;;;;;;;5093542;28;20058;-78
2023/07/15 04:25:18;;;;;;;0.00;0.00;;;;;;;;;;5093897;28;20474;-77
2023/07/15 04:27:44;;;;;;;0.00;0.00;;;;;;;;;;5093894;28;20526;-77
2023/07/15 04:30:11;;;;;;;0.00;0.00;;;;;;;;;;5093605;28;20048;-78
2023/07/15 04:32:37;;;;;;;0.00;0.00;;;;;;;;;;5094025;28;20075;-78
2023/07/15 04:35:03;;;;;;;0.00;0.00;;;;;;;;;;5095285;28;20126;-77
2023/07/15 04:37:30;;;;;;;0.00;0.00;;;;;;;;;;5093806;28;20051;-77
2023/07/15 04:39:56;;;;;;;0.00;0.00;;;;;;;;;;5095037;28;20047;-78
2023/07/15 04:42:22;;;;;;;0.00;0.00;;;;;;;;;;5093653;28;20048;-78
2023/07/15 04:44:48;;;;;;;0.00;0.00;;;;;;;;;;5093716;28;20048;-77
2023/07/15 04:47:14;;;;;;;0.00;0.00;;;;;;;;;;5093555;28;20063;-78
2023/07/15 04:49:40;;;;;;;0.00;0.00;;;;;;;;;;5095011;28;20036;-77
2023/07/15 04:52:06;;;;;;;0.00;0.00;;;;;;;;;;5093762;28;20044;-78
2023/07/15 04:54:32;;;;;;;0.00;0.00;;;;;;;;;;5093656;28;20039;-78
2023/07/15 04:56:58;;;;;;;0.00;0.00;;;;;;;;;;5094639;28;20036;-78
2023/07/15 04:59:24;;;;;;;0.00;0.00;;;;;;;;;;5093546;28;20135;-78
2023/07/15 05:01:51;;;;;;;0.00;0.00;;;;;;;;;;5093240;28;20039;-78
2023/07/15 05:04:17;;;;;;;0.00;0.00;;;;;;;;;;5093460;28;20040;-78
2023/07/15 05:06:43;;;;;;;0.00;0.00;;;;;;;;;;5093221;28;20047;-77
2023/07/15 05:09:10;;;;;;;0.00;0.00;;;;;;;;;;5094625;28;20063;-78
2023/07/15 05:11:36;;;;;;;0.00;0.00;;;;;;;;;;5093062;28;20075;-77
2023/07/15 05:14:02;;;;;;;0.00;0.00;;;;;;;;;;5094690;28;20471;-78
2023/07/15 05:16:28;;;;;;;0.00;0.00;;;;;;;;;;5094497;28;20040;-78
2023/07/15 05:18:55;;;;;;;0.00;0.00;;;;;;;;;;5093601;28;20054;-78
2023/07/15 05:21:20;;;;;;;0.00;0.00;;;;;;;;;;5093296;28;20044;-78
2023/07/15 05:23:47;;;;;;;0.00;0.00;;;;;;;;;;5095083;28;20043;-78
2023/07/15 05:26:13;;;;;;;0.00;0.00;;;;;;;;;;5094321;28;20046;-78
2023/07/15 05:28:39;;;;;;;0.00;0.00;;;;;;;;;;5092919;28;20131;-78
2023/07/15 05:31:05;;;;;;;0.00;0.00;;;;;;;;;;5092570;28;20147;-78
2023/07/15 05:33:31;;;;;;;0.00;0.00;;;;;;;;;;5093855;28;20040;-78
2023/07/15 05:35:57;;;;;;;0.00;0.00;;;;;;;;;;5092438;28;20119;-78
2023/07/15 05:38:24;;;;;;;0.00;0.00;;;;;;;;;;5092668;28;20430;-78
2023/07/15 05:40:50;;;;;;;0.00;0.00;;;;;;;;;;5092451;28;20058;-78
2023/07/15 05:43:16;;;;;;;0.00;0.00;;;;;;;;;;5092595;28;20043;-78
2023/07/15 05:45:42;;;;;;;0.00;0.00;;;;;;;;;;5092289;28;20055;-77
2023/07/15 05:48:08;;;;;;;0.00;0.00;;;;;;;;;;5093650;28;20044;-77
2023/07/15 05:50:36;;;;;;;0.00;0.00;;;;;;;;;;5092644;28;20048;-78
2023/07/15 05:53:03;;;;;;;0.00;0.00;;;;;;;;;;5093699;28;20044;-78
2023/07/15 05:55:29;;;;;;;0.00;0.00;;;;;;;;;;5093774;28;20119;-77
2023/07/15 05:57:55;;;;;;;0.00;0.00;;;;;;;;;;5092126;28;20044;-77
2023/07/15 06:00:21;;;;;;;0.00;0.00;;;;;;;;;;5092241;28;20044;-77
2023/07/15 06:02:47;;;;;;;0.00;0.00;;;;;;;;;;5092038;28;20048;-78
2023/07/15 06:05:13;;;;;;;0.00;0.00;;;;;;;;;;5093504;28;20403;-77
2023/07/15 06:07:39;;;;;;;0.00;0.00;;;;;;;;;;5093170;28;20036;-78
2023/07/15 06:10:06;;;;;;;0.00;0.00;;;;;;;;;;5092093;28;20032;-77
2023/07/15 06:12:32;;;;;;;0.00;0.00;;;;;;;;;;5092138;28;20067;-78
2023/07/15 06:14:58;;;;;;;0.00;0.00;;;;;;;;;;5093656;28;20040;-78
2023/07/15 06:17:24;;;;;;;0.00;0.00;;;;;;;;;;5091982;28;20445;-77
2023/07/15 06:19:50;;;;;;;0.00;0.00;;;;;;;;;;5093198;28;20142;-77
2023/07/15 06:22:16;;;;;;;0.00;0.00;;;;;;;;;;5092975;28;20406;-78
2023/07/15 06:24:42;;;;;;;0.10;0.00;;;;;;;;;;5093232;28;20066;-79
2023/07/15 06:27:08;;;;;;;0.00;0.00;;;;;;;;;;5092762;28;20101;-78
2023/07/15 06:29:34;;;;;;;0.00;0.00;;;;;;;;;;5091570;28;20032;-79
2023/07/15 06:32:00;;;;;;;0.00;0.00;;;;;;;;;;5093204;28;20047;-79
2023/07/15 06:34:28;;;;;;;0.00;0.00;;;;;;;;;;5092882;28;20032;-80
2023/07/15 06:36:54;;;;;;;0.00;0.00;;;;;;;;;;5091338;28;20048;-80
2023/07/15 06:39:20;;;;;;;0.00;0.00;;;;;;;;;;5092886;28;20360;-80
2023/07/15 06:41:46;;;;;;;0.00;0.00;;;;;;;;;;5091466;28;20079;-79
2023/07/15 06:44:12;;;;;;;0.00;0.00;;;;;;;;;;5092659;28;20063;-80
2023/07/15 06:46:38;;;;;;;0.00;0.00;;;;;;;;;;5091775;28;20054;-80
2023/07/15 06:49:04;;;;;;;0.00;0.00;;;;;;;;;;5092932;28;20537;-81
2023/07/15 06:51:29;;;;;;;0.00;0.00;;;;;;;;;;5091646;28;20044;-82
2023/07/15 06:53:55;;;;;;;0.00;0.00;;;;;;;;;;5093108;28;20040;-83
2023/07/15 06:56:21;;;;;;;0.00;0.00;;;;;;;;;;5093960;28;20131;-84
2023/07/15 06:58:47;;;;;;;0.00;0.00;;;;;;;;;;5092745;28;20371;-80
2023/07/15 07:01:13;;;;;;;0.00;0.00;;;;;;;;;;5091687;28;20149;-80
2023/07/15 07:03:39;;;;;;;0.00;0.00;;;;;;;;;;5092481;28;20087;-80
2023/07/15 07:06:05;;;;;;;0.00;0.00;;;;;;;;;;5091338;28;20055;-79
2023/07/15 07:08:31;;;;;;;0.00;0.00;;;;;;;;;;5074254;28;20044;-79
2023/07/15 07:10:57;;;;;;;0.00;0.00;;;;;;;;;;5091156;28;20071;-80
2023/07/15 07:13:23;;;;;;;0.00;0.00;;;;;;;;;;5090945;28;20050;-80
2023/07/15 07:15:50;;;;;;;0.00;0.00;;;;;;;;;;5092632;28;20035;-80
2023/07/15 07:18:16;;;;;;;0.00;0.00;;;;;;;;;;5091155;28;20048;-80
2023/07/15 07:20:42;;;;;;;0.00;0.00;;;;;;;;;;5091340;28;20043;-80
2023/07/15 07:23:08;;;;;;;0.00;0.00;;;;;;;;;;5090705;28;20078;-80
2023/07/15 07:25:34;;;;;;;0.00;0.00;;;;;;;;;;5090887;28;20071;-79
2023/07/15 07:28:00;;;;;;;0.00;0.00;;;;;;;;;;5092097;28;20044;-80
2023/07/15 07:30:27;;;;;;;0.00;0.00;;;;;;;;;;5092321;28;20036;-79
2023/07/15 07:32:53;;;;;;;0.00;0.00;;;;;;;;;;5092137;28;20080;-79
2023/07/15 07:35:19;;;;;;;0.00;0.00;;;;;;;;;;5074333;28;20032;-80
2023/07/15 07:37:45;;;;;;;0.00;0.00;;;;;;;;;;5091455;28;20131;-84
2023/07/15 07:40:11;;;;;;;0.00;0.00;;;;;;;;;;5091983;28;20123;-84
2023/07/15 07:42:37;;;;;;;0.00;0.00;;;;;;;;;;5091713;28;20115;-80
2023/07/15 07:45:13;;;;;;;0.00;0.00;;;;;;;;;;5091356;28;20507;-80
2023/07/15 07:47:39;;;;;;;0.00;0.00;;;;;;;;;;5091313;28;20403;-79
2023/07/15 07:50:06;;;;;;;0.00;0.00;;;;;;;;;;5092651;28;20036;-79
2023/07/15 07:52:32;;;;;;;0.00;0.00;;;;;;;;;;5091265;28;20040;-80
2023/07/15 07:54:58;;;;;;;0.00;0.00;;;;;;;;;;5074560;28;20422;-79
2023/07/15 07:57:24;;;;;;;0.00;0.00;;;;;;;;;;5095375;28;20035;-79
2023/07/15 07:59:49;;;;;;;0.00;0.00;;;;;;;;;;5095299;28;20071;-79
2023/07/15 08:02:15;;;;;;;0.00;0.00;;;;;;;;;;5095408;28;20059;-79
2023/07/15 08:04:41;;;;;;;0.00;0.00;;;;;;;;;;5096456;28;20039;-78
2023/07/15 08:07:07;;;;;;;0.00;0.00;;;;;;;;;;5096464;28;20521;-78
2023/07/15 08:09:33;;;;;;;0.00;0.00;;;;;;;;;;5096173;28;20085;-79
2023/07/15 08:11:59;;;;;;;0.00;0.00;;;;;;;;;;5096518;28;20072;-79
2023/07/15 08:14:25;;;;;;;0.00;0.00;;;;;;;;;;5095059;28;20047;-84
2023/07/15 08:16:51;;;;;;;0.00;0.00;;;;;;;;;;5096385;28;20052;-82
2023/07/15 08:19:18;;;;;;;0.00;0.00;;;;;;;;;;5094667;28;20071;-78
2023/07/15 08:21:43;;;;;;;0.00;0.00;;;;;;;;;;5096263;28;20196;-78
2023/07/15 08:24:10;;;;;;;0.00;0.00;;;;;;;;;;5095844;28;20183;-78
2023/07/15 08:26:36;;;;;;;0.00;0.00;;;;;;;;;;5095840;28;20526;-78
2023/07/15 08:29:11;;;;;;;0.00;0.00;;;;;;;;;;5095815;28;20492;-79
2023/07/15 08:31:37;;;;;;;0.00;0.00;;;;;;;;;;5094629;28;20234;-79
2023/07/15 08:34:03;;;;;;;0.00;0.00;;;;;;;;;;5094372;28;20171;-78
2023/07/15 08:36:29;;;;;;;0.00;0.00;;;;;;;;;;5094902;28;20054;-78
2023/07/15 08:38:55;;;;;;;0.00;0.00;;;;;;;;;;5094470;28;20047;-78
2023/07/15 08:41:24;;;;;;;0.00;0.00;;;;;;;;;;5095440;28;20040;-79
2023/07/15 08:43:51;;;;;;;0.00;0.00;;;;;;;;;;5095293;28;20036;-79
2023/07/15 08:46:23;;;;;;;0.00;0.00;;;;;;;;;;5093783;28;20556;-78
2023/07/15 08:48:49;;;;;;;0.00;0.00;;;;;;;;;;5094096;28;20055;-79
2023/07/15 08:51:15;;;;;;;0.00;0.00;;;;;;;;;;5095356;28;20063;-79
2023/07/15 08:53:41;;;;;;;0.00;0.00;;;;;;;;;;5094856;28;20440;-79
2023/07/15 08:56:09;;;;;;;0.00;0.00;;;;;;;;;;5095196;28;20048;-79
2023/07/15 08:58:35;;;;;;;0.00;0.00;;;;;;;;;;5094986;28;20645;-79
2023/07/15 09:01:01;;;;;;;0.00;0.00;;;;;;;;;;5093633;28;20566;-79
2023/07/15 09:03:28;;;;;;;0.00;0.00;;;;;;;;;;5095013;28;20068;-80
2023/07/15 09:05:54;;;;;;;0.00;0.00;;;;;;;;;;5094088;28;20048;-79
2023/07/15 09:08:20;;;;;;;0.00;0.00;;;;;;;;;;5092732;28;20036;-78
2023/07/15 09:10:53;;;;;;;0.00;0.00;;;;;;;;;;5093537;28;20123;-78
2023/07/15 09:13:22;;;;;;;0.00;0.00;;;;;;;;;;5094849;28;20392;-78
2023/07/15 09:15:48;;;;;;;0.00;0.00;;;;;;;;;;5094957;28;20036;-79
2023/07/15 09:18:14;;;;;;;0.00;0.00;;;;;;;;;;5093374;28;20044;-78
2023/07/15 09:20:41;;;;;;;0.22;0.05;;;;;;;;;;5093857;28;20055;-77
2023/07/15 09:23:07;;;;;;;0.00;0.00;;;;;;;;;;5094534;28;20559;-75
2023/07/15 09:25:35;;;;;;;0.00;0.00;;;;;;;;;;5095016;28;20055;-78
2023/07/15 09:28:02;;;;;;;0.00;0.00;;;;;;;;;;5093470;28;20036;-78
2023/07/15 09:30:28;;;;;;;0.00;0.00;;;;;;;;;;5094355;28;20066;-78
2023/07/15 09:32:54;;;;;;;0.00;0.00;;;;;;;;;;5094796;28;20040;-77
2023/07/15 09:35:23;;;;;;;0.00;0.00;;;;;;;;;;5094606;28;20040;-78
2023/07/15 09:37:49;;;;;;;0.00;0.00;;;;;;;;;;5094574;28;20119;-78
2023/07/15 09:40:15;;;;;;;0.00;0.00;;;;;;;;;;5092777;28;20047;-78
2023/07/15 09:42:54;;;;;;;0.00;0.00;;;;;;;;;;5093307;28;20051;-78
2023/07/15 09:45:36;;;;;;;0.00;0.00;;;;;;;;;;5092661;28;20078;-77
2023/07/15 09:48:02;;;;;;;0.00;0.00;;;;;;;;;;5092432;28;20044;-78
2023/07/15 09:50:30;;;;;;;0.00;0.00;;;;;;;;;;5093540;28;20040;-78
2023/07/15 09:52:58;;;;;;;0.00;0.00;;;;;;;;;;5093538;28;20123;-77
2023/07/15 09:55:24;;;;;;;0.00;0.00;;;;;;;;;;5092266;28;20082;-77
2023/07/15 09:58:05;;;;;;;0.00;0.00;;;;;;;;;;5092791;28;20044;-78
2023/07/15 10:00:34;;;;;;;0.00;0.00;;;;;;;;;;5092467;28;20055;-78
2023/07/15 10:03:02;;;;;;;0.00;0.00;;;;;;;;;;5092424;28;20044;-78
2023/07/15 10:05:28;;;;;;;0.00;0.00;;;;;;;;;;5093674;28;20134;-79
2023/07/15 10:07:54;;;;;;;0.00;0.00;;;;;;;;;;5094173;28;20525;-78
2023/07/15 10:10:21;;;;;;;0.00;0.00;;;;;;;;;;5093505;28;20535;-78
2023/07/15 10:12:47;;;;;;;0.00;0.00;;;;;;;;;;5094002;28;20362;-80
2023/07/15 10:15:14;;;;;;;0.00;0.00;;;;;;;;;;5092006;28;20036;-78
2023/07/15 10:17:40;;;;;;;0.00;0.00;;;;;;;;;;5093551;28;20040;-78
2023/07/15 10:20:13;;;;;;;0.00;0.00;;;;;;;;;;5091636;28;20052;-78
2023/07/15 10:22:40;;;;;;;0.00;0.00;;;;;;;;;;5093873;28;20391;-78
2023/07/15 10:25:08;;;;;;;0.00;0.00;;;;;;;;;;5093168;28;20044;-78
2023/07/15 10:27:34;;;;;;;0.00;0.00;;;;;;;;;;5093392;28;20044;-78
2023/07/15 10:30:16;;;;;;;0.00;0.00;;;;;;;;;;5091793;28;20040;-79
2023/07/15 10:33:03;;;;;;;0.00;0.00;;;;;;;;;;5093378;28;20028;-78
2023/07/15 10:35:46;;;;;;;0.00;0.00;;;;;;;;;;5091733;28;20039;-78
2023/07/15 10:38:23;;;;;;;0.00;0.00;;;;;;;;;;5093696;28;20093;-78
2023/07/15 10:40:53;;;;;;;0.00;0.00;;;;;;;;;;5092101;28;20484;-78
2023/07/15 10:43:45;;;;;;;0.00;0.00;;;;;;;;;;5092125;28;20097;-78
2023/07/15 10:46:12;;;;;;;0.00;0.00;;;;;;;;;;5090671;28;20052;-78
2023/07/15 10:48:38;;;;;;;0.00;0.00;;;;;;;;;;5092050;28;20119;-79
2023/07/15 10:51:07;;;;;;;0.00;0.00;;;;;;;;;;5091836;28;20141;-78
2023/07/15 10:53:33;;;;;;;0.00;0.00;;;;;;;;;;5091944;28;20078;-78
2023/07/15 10:56:10;;;;;;;0.00;0.00;;;;;;;;;;5093150;28;20044;-79
2023/07/15 10:58:36;;;;;;;0.00;0.00;;;;;;;;;;5093382;28;20127;-78
2023/07/15 11:01:03;;;;;;;0.00;0.00;;;;;;;;;;5091873;28;20044;-78
2023/07/15 11:03:31;;;;;;;0.00;0.00;;;;;;;;;;5093272;28;20059;-78
2023/07/15 11:06:03;;;;;;;0.00;0.00;;;;;;;;;;5091566;28;20040;-79
2023/07/15 11:08:29;;;;;;;0.00;0.00;;;;;;;;;;5091786;28;20040;-79
2023/07/15 11:11:07;;;;;;;0.00;0.00;;;;;;;;;;5091865;28;20047;-79
2023/07/15 11:13:40;;;;;;;0.00;0.00;;;;;;;;;;5093178;28;20040;-79
2023/07/15 11:16:06;;;;;;;0.00;0.00;;;;;;;;;;5093118;28;20046;-79
2023/07/15 11:18:32;;;;;;;0.00;0.00;;;;;;;;;;5093054;28;20044;-79
2023/07/15 11:20:59;;;;;;;0.00;0.00;;;;;;;;;;5091454;28;20048;-79
2023/07/15 11:23:28;;;;;;;0.00;0.00;;;;;;;;;;5093156;28;20051;-78
2023/07/15 11:25:57;;;;;;;0.00;0.00;;;;;;;;;;5074737;28;20044;-78
2023/07/15 11:28:23;;;;;;;0.00;0.00;;;;;;;;;;5091539;28;20507;-78
2023/07/15 11:30:49;;;;;;;0.00;0.00;;;;;;;;;;5091543;28;20051;-78
2023/07/15 11:33:15;;;;;;;0.00;0.00;;;;;;;;;;5097143;28;20036;-78
2023/07/15 11:35:42;;;;;;;0.00;0.00;;;;;;;;;;5095800;28;20387;-78
2023/07/15 11:38:11;;;;;;;0.00;0.00;;;;;;;;;;5095619;28;20043;-79
2023/07/15 11:40:38;;;;;;;0.00;0.00;;;;;;;;;;5096880;28;20490;-78
2023/07/15 11:43:07;;;;;;;0.00;0.00;;;;;;;;;;5079245;28;20075;-78
2023/07/15 11:45:33;;;;;;;0.00;0.00;;;;;;;;;;5095073;28;20062;-79
2023/07/15 11:47:59;;;;;;;0.00;0.00;;;;;;;;;;5078290;28;20052;-78
2023/07/15 11:50:27;;;;;;;0.00;0.00;;;;;;;;;;5095190;28;20094;-78
2023/07/15 11:52:54;;;;;;;0.00;0.00;;;;;;;;;;5096804;28;20328;-79
2023/07/15 11:55:26;;;;;;;0.00;0.00;;;;;;;;;;5096507;28;20042;-79
2023/07/15 11:57:53;;;;;;;0.00;0.00;;;;;;;;;;5095599;28;20036;-79
2023/07/15 12:00:36;;;;;;;0.00;0.00;;;;;;;;;;5094861;28;20127;-78
2023/07/15 12:03:08;;;;;;;0.00;0.00;;;;;;;;;;5095492;28;20036;-79
2023/07/15 12:05:38;;;;;;;0.00;0.00;;;;;;;;;;5096187;28;20048;-79
2023/07/15 12:08:10;;;;;;;0.00;0.00;;;;;;;;;;5095122;28;20048;-79
2023/07/15 12:10:51;;;;;;;0.00;0.00;;;;;;;;;;5096218;28;20047;-78
2023/07/15 12:13:17;;;;;;;0.00;0.00;;;;;;;;;;5096425;28;20483;-79
2023/07/15 12:15:43;;;;;;;0.00;0.00;;;;;;;;;;5096325;28;20032;-79
2023/07/15 12:18:09;;;;;;;0.00;0.00;;;;;;;;;;5095085;28;20047;-80
2023/07/15 12:20:35;;;;;;;0.00;0.00;;;;;;;;;;5095823;28;20403;-79
2023/07/15 12:23:01;;;;;;;0.00;0.00;;;;;;;;;;5096228;28;20040;-78
2023/07/15 12:25:27;;;;;;;0.00;0.00;;;;;;;;;;5094620;28;20129;-79
2023/07/15 12:27:53;;;;;;;0.00;0.00;;;;;;;;;;5094701;28;20040;-79
2023/07/15 12:30:19;;;;;;;0.00;0.00;;;;;;;;;;5095854;28;20036;-79
2023/07/15 12:32:45;;;;;;;0.00;0.00;;;;;;;;;;5096079;28;20036;-79
2023/07/15 12:35:11;;;;;;;0.00;0.00;;;;;;;;;;5095782;28;20043;-79
2023/07/15 12:37:38;;;;;;;0.00;0.00;;;;;;;;;;5095820;28;20040;-79
2023/07/15 12:40:06;;;;;;;0.00;0.00;;;;;;;;;;5094176;28;20093;-78
2023/07/15 12:42:32;;;;;;;0.00;0.00;;;;;;;;;;5093647;28;20074;-79
2023/07/15 12:44:58;;;;;;;0.00;0.00;;;;;;;;;;5095439;28;20060;-78
2023/07/15 12:47:24;;;;;;;0.00;0.00;;;;;;;;;;5095185;28;20142;-78
2023/07/15 12:49:49;;;;;;;0.00;0.00;;;;;;;;;;5094199;28;20052;-78
2023/07/15 12:52:15;;;;;;;0.00;0.00;;;;;;;;;;5095404;28;20440;-78
2023/07/15 12:54:41;;;;;;;0.00;0.00;;;;;;;;;;5094175;28;20040;-78
2023/07/15 12:57:07;;;;;;;0.00;0.00;;;;;;;;;;5094209;28;20040;-78
2023/07/15 12:59:33;;;;;;;0.17;0.17;;;;;;;;;;5095405;28;20411;-79
2023/07/15 13:02:00;;;;;;;0.00;0.00;;;;;;;;;;5095241;28;20050;-79
2023/07/15 13:04:26;;;;;;;0.00;0.00;;;;;;;;;;5095407;28;20067;-78
2023/07/15 13:06:52;;;;;;;0.00;0.00;;;;;;;;;;5094950;28;20475;-79
2023/07/15 13:09:18;;;;;;;0.00;0.00;;;;;;;;;;5095385;28;20036;-79
2023/07/15 13:11:44;;;;;;;0.00;0.00;;;;;;;;;;5094984;28;20101;-79
2023/07/15 13:14:10;;;;;;;0.15;0.00;;;;;;;;;;5093967;28;20140;-79
2023/07/15 13:16:36;;;;;;;0.00;0.00;;;;;;;;;;5094733;28;20510;-79
2023/07/15 13:19:02;;;;;;;0.00;0.00;;;;;;;;;;5095078;28;20040;-80
2023/07/15 13:21:28;;;;;;;0.00;0.00;;;;;;;;;;5093330;28;20119;-79
2023/07/15 13:23:54;;;;;;;0.00;0.00;;;;;;;;;;5095093;28;20036;-79
2023/07/15 13:26:20;;;;;;;0.00;0.00;;;;;;;;;;5093355;28;20123;-79
2023/07/15 13:28:46;;;;;;;0.00;0.00;;;;;;;;;;5094817;28;20100;-79
2023/07/15 13:31:12;;;;;;;0.00;0.00;;;;;;;;;;5094364;28;20036;-78
2023/07/15 13:33:38;;;;;;;0.00;0.00;;;;;;;;;;5094811;28;20036;-79
2023/07/15 13:36:04;;;;;;;0.00;0.00;;;;;;;;;;5094402;28;20063;-78
2023/07/15 13:38:30;;;;;;;0.00;0.00;;;;;;;;;;5093455;28;20475;-79
2023/07/15 13:40:56;;;;;;;0.00;0.00;;;;;;;;;;5092999;28;20054;-79
2023/07/15 13:43:22;;;;;;;0.00;0.00;;;;;;;;;;5076521;28;20047;-78
2023/07/15 13:45:48;;;;;;;0.00;0.00;;;;;;;;;;5093082;28;20123;-80
2023/07/15 13:48:14;;;;;;;0.00;0.00;;;;;;;;;;5094522;28;20044;-78
2023/07/15 13:50:40;;;;;;;0.00;0.00;;;;;;;;;;5092893;28;20124;-79
2023/07/15 13:53:06;;;;;;;0.00;0.00;;;;;;;;;;5094373;28;20048;-78
2023/07/15 13:55:32;;;;;;;0.00;0.00;;;;;;;;;;5094118;28;20047;-78
2023/07/15 13:57:58;;;;;;;0.00;0.00;;;;;;;;;;5094330;28;20040;-79
2023/07/15 14:00:24;;;;;;;0.00;0.00;;;;;;;;;;5092848;28;20055;-79
2023/07/15 14:02:51;;;;;;;0.00;0.00;;;;;;;;;;5093877;28;20047;-79
2023/07/15 14:05:17;;;;;;;0.00;0.00;;;;;;;;;;5094032;28;20047;-79
2023/07/15 14:07:44;;;;;;;0.00;0.00;;;;;;;;;;5092483;28;20044;-79
2023/07/15 14:10:10;;;;;;;0.00;0.00;;;;;;;;;;5092901;28;20086;-79
2023/07/15 14:12:36;;;;;;;0.00;0.00;;;;;;;;;;5093915;28;20074;-79
2023/07/15 14:15:03;;;;;;;0.00;0.00;;;;;;;;;;5092892;28;20043;-79
2023/07/15 14:17:29;;;;;;;0.00;0.00;;;;;;;;;;5093720;28;20040;-79
2023/07/15 14:19:55;;;;;;;0.00;0.00;;;;;;;;;;5092464;28;20044;-79
2023/07/15 14:22:21;;;;;;;0.00;0.00;;;;;;;;;;5092263;28;20048;-79
2023/07/15 14:24:47;;;;;;;0.00;0.00;;;;;;;;;;5093937;28;20043;-79
2023/07/15 14:27:13;;;;;;;0.00;0.00;;;;;;;;;;5092115;28;20044;-78
2023/07/15 14:29:40;;;;;;;0.00;0.00;;;;;;;;;;5093828;28;20115;-79
2023/07/15 14:32:06;;;;;;;0.00;0.00;;;;;;;;;;5093485;28;20044;-79
2023/07/15 14:34:33;;;;;;;0.00;0.00;;;;;;;;;;5093525;28;20036;-79
2023/07/15 14:37:00;;;;;;;0.00;0.00;;;;;;;;;;5092315;28;20056;-79
2023/07/15 14:39:26;;;;;;;0.00;0.00;;;;;;;;;;5075446;28;20490;-79
2023/07/15 14:41:52;;;;;;;0.00;0.00;;;;;;;;;;5075088;28;20039;-79